Flight Track Log - Related Links

Times and Time Zones

All times are in EDT time to prevent confusion due to time zone crossing. See the EJA922 flight status page for this flight to view local times or setup timezone preferences in your user account.

Time Position Orientation Groundspeed Altitude Reporting Facility
EDT Latitude Longitude Course Direction KTS MPH feet Rate Location/Type
Sun 03:34:44 PM 40.8167 -74.1167 270° West 197 227 1,500  Level New York TRACON
Sun 03:35:45 PM 40.8167 -74.1833 270° West 204 235 2,800 1,650 Climbing New York TRACON
Sun 03:36:44 PM 40.8167 -74.2667 270° West 262 302 4,800 1,664 Climbing New York TRACON
Sun 03:37:44 PM 40.9000 -74.2500 North 282 325 6,100 1,149 Climbing New York TRACON
Sun 03:39:52 PM 41.0428 -74.1850 19° North 286 329 8,400 1,500 Climbing Boston Center
Sun 03:40:52 PM 41.0942 -74.0817 57° Northeast 292 336 10,800 1,300 Climbing Boston Center
Sun 03:41:52 PM 41.1311 -73.9806 64° Northeast 312 359 11,000 100 Climbing Boston Center
Sun 03:42:52 PM 41.1889 -73.8744 54° Northeast 320 368 11,000  Level Boston Center
Sun 03:43:52 PM 41.2233 -73.7814 64° Northeast 320 368 11,000  Level Boston Center
Sun 03:44:52 PM 41.2581 -73.6606 69° East 314 361 11,000 550 Level Boston Center
Sun 03:45:52 PM 41.3050 -73.5453 62° Northeast 333 383 12,100 1,600 Climbing Boston Center
Sun 03:46:52 PM 41.3767 -73.4469 46° Northeast 364 419 14,200 2,000 Climbing Boston Center
Sun 03:47:52 PM 41.4547 -73.3458 44° Northeast 375 432 16,100 1,800 Climbing Boston Center
Sun 03:48:52 PM 41.5242 -73.2553 44° Northeast 388 447 17,800 1,450 Climbing Boston Center
Sun 03:49:52 PM 41.6189 -73.1428 42° Northeast 395 455 19,000 1,200 Climbing Boston Center
Sun 03:50:52 PM 41.7231 -73.1217 North 370 426 20,200 1,200 Climbing Boston Center
Sun 03:51:52 PM 41.8356 -73.1422 352° North 376 433 21,400 1,150 Climbing Boston Center
Sun 03:52:52 PM 41.9522 -73.1631 352° North 394 453 22,500 1,150 Climbing Boston Center
Sun 03:53:52 PM 42.0667 -73.1839 352° North 412 474 23,700 1,100 Climbing Boston Center
Sun 03:54:52 PM 42.1856 -73.1714 North 418 481 24,700 1,150 Climbing Boston Center
Sun 03:55:52 PM 42.3044 -73.1447 North 423 487 26,000 1,150 Climbing Boston Center
Sun 03:56:52 PM 42.4236 -73.0897 19° North 442 509 27,000 500 Climbing Boston Center
Sun 03:57:52 PM 42.5036 -72.9469 53° Northeast 431 496 27,000  Level Boston Center
Sun 03:58:52 PM 42.5728 -72.7925 59° Northeast 449 517 27,000  Level Boston Center
Sun 03:59:52 PM 42.6253 -72.6631 61° Northeast 467 537 27,000  Level Boston Center
Sun 04:00:52 PM 42.7025 -72.4994 57° Northeast 467 537 27,000  Level Boston Center
Sun 04:01:52 PM 42.7692 -72.3411 60° Northeast 480 552 27,000  Level Boston Center
Sun 04:02:52 PM 42.8336 -72.1767 62° Northeast 480 552 27,000  Level Boston Center
Sun 04:03:52 PM 42.8997 -72.0178 60° Northeast 480 552 27,000  Level Boston Center
Sun 04:04:52 PM 42.9678 -71.8556 60° Northeast 480 552 27,000 -450 Level Boston Center
Sun 04:05:52 PM 43.0378 -71.6903 60° Northeast 485 558 26,100 -1,000 Descending Boston Center
Sun 04:06:52 PM 43.1114 -71.5100 61° Northeast 485 558 25,000 -1,000 Descending Boston Center
Sun 04:07:52 PM 43.1747 -71.3639 59° Northeast 485 558 24,100 -850 Descending Boston Center
Sun 04:08:52 PM 43.2400 -71.2061 60° Northeast 485 558 23,300 -1,200 Descending Boston Center
Sun 04:09:52 PM 43.3047 -71.0450 61° Northeast 485 558 21,700 -1,800 Descending Boston Center
Sun 04:10:52 PM 43.3733 -70.8747 61° Northeast 478 550 19,700 -1,950 Descending Boston Center
Sun 04:11:52 PM 43.4236 -70.7392 63° Northeast 447 514 17,800 -1,727 Descending Boston Center
Sun 04:13:04 PM 43.4878 -70.5800 61° Northeast 439 505 15,900 -1,955 Descending Boston Center
Sun 04:14:04 PM 43.5497 -70.4233 61° Northeast 400 460 13,500 -2,150 Descending Boston Center
Sun 04:15:04 PM 43.5917 -70.3217 60° Northeast 353 406 11,600 -1,955 Descending Boston Center
Sun 04:16:16 PM 43.6453 -70.1792 62° Northeast 320 368 9,200 -1,182 Descending Boston Center
Sun 04:17:16 PM 43.6828 -70.0831 62° Northeast 291 335 9,000 -600 Descending Boston Center
Sun 04:18:16 PM 43.7167 -70.0011 60° Northeast 278 320 8,000 -1,300 Descending Boston Center
Sun 04:19:16 PM 43.7539 -69.8992 63° Northeast 273 314 6,400 -1,450 Descending Boston Center
Sun 04:20:16 PM 43.7833 -69.8203 63° Northeast 267 307 5,100 -650 Descending Boston Center
Sun 04:21:16 PM 43.8186 -69.7236 63° Northeast 257 296 5,100 -50 Level Boston Center
Sun 04:22:16 PM 43.8500 -69.6389 63° Northeast 266 306 5,000 -50 Descending Boston Center
Sun 04:23:16 PM 43.8892 -69.5389 61° Northeast 266 306 5,000 50 Level Boston Center
Sun 04:24:16 PM 43.9206 -69.4597 61° Northeast 261 300 5,100 -850 Climbing Boston Center
Sun 04:25:16 PM 43.9575 -69.3625 62° Northeast 256 295 3,300 -1,800 Descending Boston Center
Sun 04:27:00 PM 44.0322 -69.1369 65° Northeast  Level FlightAware Approximate
Sun 04:34:00 PM 44.0500 -69.0833 65° Northeast  Level FlightAware Approximate

Login

Don't have an account? Register now (free) for customized features, flight alerts, and more!